Terminal Aerodrome Forecast
Issued by NWS Wilmington, OH

Current Version | Previous Version | Graphics & Text | Print | Product List | Glossary On
Versions: 1 2 3 4 5 6 7 8 9 10 11 12 13 14 15 16 17 18 19 20 21 22 23 24 25 26 27 28 29 30
585
FTUS41 KILN 010534
TAFILN
TAF
KILN 010534Z 0106/0206 27008G17KT P6SM OVC035
     FM011400 25012G20KT P6SM OVC040
     FM020000 25006KT P6SM OVC040=

USA.gov is the U.S. government's official web portal to all federal, state and local government web resources and services.